Time;durP1;ratioP1;P1;durP2;ratioP2;P2;SDS_P1;SDS_P2;PMS_P1;PMS_P2;Temp;Humidity;BMP_temperature;BMP_pressure;BME280_temperature;BME280_humidity;BME280_pressure;Samples;Min_cycle;Max_cycle;Signal;HPM_P1;HPM_P2
2023/09/20 00:00:55;;;;;;;4.90;4.40;;;;;;;;;;5099872;28;20617;-70
2023/09/20 00:03:25;;;;;;;6.20;4.07;;;;;;;;;;5109263;28;20633;-69
2023/09/20 00:05:53;;;;;;;4.13;3.80;;;;;;;;;;5098447;28;20205;-70
2023/09/20 00:08:20;;;;;;;4.10;3.80;;;;;;;;;;5090607;28;20189;-70
2023/09/20 00:10:48;;;;;;;6.00;5.40;;;;;;;;;;5090352;28;20207;-70
2023/09/20 00:13:15;;;;;;;5.20;4.57;;;;;;;;;;5097030;28;20195;-70
2023/09/20 00:15:42;;;;;;;11.30;4.60;;;;;;;;;;5111219;28;20206;-71
2023/09/20 00:18:11;;;;;;;5.37;4.47;;;;;;;;;;5104151;28;20296;-70
2023/09/20 00:20:39;;;;;;;4.40;4.00;;;;;;;;;;5090560;28;20208;-70
2023/09/20 00:23:07;;;;;;;7.67;4.83;;;;;;;;;;5096950;28;20706;-70
2023/09/20 00:25:34;;;;;;;4.67;4.03;;;;;;;;;;5097005;28;20628;-70
2023/09/20 00:28:03;;;;;;;4.20;3.90;;;;;;;;;;5090776;28;20313;-70
2023/09/20 00:30:30;;;;;;;4.73;4.33;;;;;;;;;;5104268;28;20260;-70
2023/09/20 00:32:56;;;;;;;4.87;4.47;;;;;;;;;;5103497;28;20290;-70
2023/09/20 00:35:23;;;;;;;6.33;5.10;;;;;;;;;;5090583;28;20581;-70
2023/09/20 00:37:50;;;;;;;7.93;4.50;;;;;;;;;;5097438;28;20212;-70
2023/09/20 00:40:18;;;;;;;4.70;4.30;;;;;;;;;;5096212;28;20200;-70
2023/09/20 00:42:46;;;;;;;5.57;3.80;;;;;;;;;;5090134;28;20273;-70
2023/09/20 00:45:15;;;;;;;4.83;4.33;;;;;;;;;;5105804;28;20202;-70
2023/09/20 00:47:44;;;;;;;6.20;4.40;;;;;;;;;;5105754;28;20200;-70
2023/09/20 00:50:12;;;;;;;4.20;3.90;;;;;;;;;;5093866;28;20710;-71
2023/09/20 00:52:41;;;;;;;4.57;4.17;;;;;;;;;;5104191;28;20235;-70
2023/09/20 00:55:10;;;;;;;5.57;5.07;;;;;;;;;;5097858;28;20250;-70
2023/09/20 00:57:38;;;;;;;4.47;4.07;;;;;;;;;;5104842;28;20587;-70
2023/09/20 01:00:19;;;;;;;6.67;4.83;;;;;;;;;;5096504;28;20253;-70
2023/09/20 01:02:51;;;;;;;5.33;4.40;;;;;;;;;;5094055;28;20286;-70
2023/09/20 01:05:21;;;;;;;5.73;4.50;;;;;;;;;;5093976;28;20196;-70
2023/09/20 01:07:50;;;;;;;5.03;4.50;;;;;;;;;;5107033;28;20745;-70
2023/09/20 01:10:18;;;;;;;4.90;4.20;;;;;;;;;;5102609;28;20210;-70
2023/09/20 01:12:45;;;;;;;5.43;4.17;;;;;;;;;;5114249;28;20196;-70
2023/09/20 01:15:12;;;;;;;5.27;4.53;;;;;;;;;;5114573;28;20196;-71
2023/09/20 01:17:45;;;;;;;4.53;4.13;;;;;;;;;;5111336;28;20702;-70
2023/09/20 01:20:18;;;;;;;4.03;3.73;;;;;;;;;;5093384;28;20287;-71
2023/09/20 01:22:47;;;;;;;6.53;4.47;;;;;;;;;;5107115;28;20207;-70
2023/09/20 01:25:21;;;;;;;5.07;4.40;;;;;;;;;;5104495;28;20223;-71
2023/09/20 01:27:48;;;;;;;5.23;4.40;;;;;;;;;;5099685;28;20209;-70
2023/09/20 01:30:16;;;;;;;5.20;4.80;;;;;;;;;;5101904;28;20287;-70
2023/09/20 01:32:44;;;;;;;7.50;4.87;;;;;;;;;;5112055;28;20282;-71
2023/09/20 01:35:11;;;;;;;5.37;4.87;;;;;;;;;;5113642;28;20207;-70
2023/09/20 01:37:38;;;;;;;5.77;4.30;;;;;;;;;;5113175;28;20207;-70
2023/09/20 01:40:15;;;;;;;4.67;4.27;;;;;;;;;;5100634;28;20192;-70
2023/09/20 01:42:43;;;;;;;5.17;4.67;;;;;;;;;;5093063;28;20231;-70
2023/09/20 01:45:14;;;;;;;5.73;4.70;;;;;;;;;;5108001;28;20230;-70
2023/09/20 01:47:44;;;;;;;5.10;4.67;;;;;;;;;;5113482;28;20210;-70
2023/09/20 01:50:11;;;;;;;7.47;5.43;;;;;;;;;;5110649;28;20207;-70
2023/09/20 01:52:38;;;;;;;4.97;4.50;;;;;;;;;;5102492;28;20295;-70
2023/09/20 01:55:11;;;;;;;4.50;3.97;;;;;;;;;;5099412;28;20734;-70
2023/09/20 01:57:38;;;;;;;4.93;4.33;;;;;;;;;;5113260;28;20305;-70
2023/09/20 02:00:21;;;;;;;6.87;3.80;;;;;;;;;;5095548;28;20616;-70
2023/09/20 02:02:49;;;;;;;4.57;4.17;;;;;;;;;;5092841;28;20196;-70
2023/09/20 02:05:17;;;;;;;4.93;4.10;;;;;;;;;;5112739;28;20223;-70
2023/09/20 02:07:47;;;;;;;5.17;4.73;;;;;;;;;;5113038;28;20200;-70
2023/09/20 02:10:16;;;;;;;4.20;3.90;;;;;;;;;;5092749;28;20273;-71
2023/09/20 02:12:45;;;;;;;5.13;4.30;;;;;;;;;;5092985;28;20204;-70
2023/09/20 02:15:12;;;;;;;5.43;4.93;;;;;;;;;;5113504;28;20245;-70
2023/09/20 02:17:39;;;;;;;4.90;4.50;;;;;;;;;;5110748;28;20755;-70
2023/09/20 02:20:09;;;;;;;6.93;4.73;;;;;;;;;;5092747;28;20262;-70
2023/09/20 02:22:38;;;;;;;4.63;4.30;;;;;;;;;;5108337;28;20757;-70
2023/09/20 02:25:11;;;;;;;4.93;4.53;;;;;;;;;;5102604;28;20578;-70
2023/09/20 02:27:40;;;;;;;4.67;4.20;;;;;;;;;;5092811;28;20257;-70
2023/09/20 02:30:10;;;;;;;7.53;5.20;;;;;;;;;;5104018;28;20284;-70
2023/09/20 02:32:37;;;;;;;5.27;4.50;;;;;;;;;;5107305;28;20363;-70
2023/09/20 02:35:06;;;;;;;5.17;4.70;;;;;;;;;;5092438;28;20231;-70
2023/09/20 02:37:33;;;;;;;4.90;4.37;;;;;;;;;;5097593;28;20206;-70
2023/09/20 02:40:00;;;;;;;5.23;4.07;;;;;;;;;;5110118;28;20200;-70
2023/09/20 02:42:27;;;;;;;5.43;4.40;;;;;;;;;;5105168;28;20206;-70
2023/09/20 02:44:56;;;;;;;4.53;4.13;;;;;;;;;;5112249;28;20223;-70
2023/09/20 02:47:24;;;;;;;4.80;4.23;;;;;;;;;;5107942;28;20199;-70
2023/09/20 02:49:51;;;;;;;4.23;3.90;;;;;;;;;;5108314;28;20200;-70
2023/09/20 02:52:18;;;;;;;5.00;4.60;;;;;;;;;;5108460;28;20197;-70
2023/09/20 02:54:45;;;;;;;6.80;4.50;;;;;;;;;;5112479;28;20199;-70
2023/09/20 02:57:13;;;;;;;4.90;4.37;;;;;;;;;;5109032;28;20210;-70
2023/09/20 02:59:40;;;;;;;5.70;3.87;;;;;;;;;;5109706;28;20204;-70
2023/09/20 03:02:08;;;;;;;4.27;3.87;;;;;;;;;;5109312;28;20252;-70
2023/09/20 03:04:37;;;;;;;5.70;4.50;;;;;;;;;;5099984;28;20736;-70
2023/09/20 03:07:06;;;;;;;6.33;4.70;;;;;;;;;;5105082;28;20287;-70
2023/09/20 03:09:36;;;;;;;4.70;4.30;;;;;;;;;;5104010;28;20205;-69
2023/09/20 03:12:05;;;;;;;7.17;3.77;;;;;;;;;;5104557;28;20204;-70
2023/09/20 03:14:34;;;;;;;4.57;4.17;;;;;;;;;;5105913;28;20211;-70
2023/09/20 03:17:02;;;;;;;5.33;4.83;;;;;;;;;;5099884;28;20561;-70
2023/09/20 03:19:31;;;;;;;4.93;3.93;;;;;;;;;;5107318;28;20224;-71
2023/09/20 03:21:59;;;;;;;5.83;4.60;;;;;;;;;;5094165;28;20231;-71
2023/09/20 03:24:26;;;;;;;5.47;4.63;;;;;;;;;;5099641;28;20725;-71
2023/09/20 03:26:54;;;;;;;5.13;4.73;;;;;;;;;;5108875;28;20318;-71
2023/09/20 03:29:23;;;;;;;4.60;4.20;;;;;;;;;;5110947;28;20195;-71
2023/09/20 03:31:50;;;;;;;5.07;4.67;;;;;;;;;;5101487;28;20192;-71
2023/09/20 03:34:20;;;;;;;5.00;4.37;;;;;;;;;;5101220;28;20202;-72
2023/09/20 03:36:50;;;;;;;6.13;4.33;;;;;;;;;;5111019;28;20199;-72
2023/09/20 03:39:20;;;;;;;4.90;4.50;;;;;;;;;;5100005;28;20199;-73
2023/09/20 03:41:47;;;;;;;5.73;4.17;;;;;;;;;;5109553;28;20199;-71
2023/09/20 03:44:14;;;;;;;5.13;4.27;;;;;;;;;;5111086;28;20321;-71
2023/09/20 03:46:41;;;;;;;5.13;3.97;;;;;;;;;;5092463;28;20206;-75
2023/09/20 03:49:08;;;;;;;5.13;3.93;;;;;;;;;;5092573;28;20200;-76
2023/09/20 03:51:36;;;;;;;5.13;4.10;;;;;;;;;;5090286;28;20204;-76
2023/09/20 03:54:05;;;;;;;4.90;4.50;;;;;;;;;;5090787;28;20756;-76
2023/09/20 03:56:32;;;;;;;5.07;4.67;;;;;;;;;;5090532;28;20682;-76
2023/09/20 03:58:59;;;;;;;5.60;4.93;;;;;;;;;;5092517;28;20207;-76
2023/09/20 04:01:28;;;;;;;5.40;4.87;;;;;;;;;;5090476;28;20250;-76
2023/09/20 04:03:54;;;;;;;6.97;4.93;;;;;;;;;;5090705;28;20196;-76
2023/09/20 04:06:23;;;;;;;5.00;4.50;;;;;;;;;;5101376;28;20196;-75
2023/09/20 04:08:50;;;;;;;6.53;5.40;;;;;;;;;;5106748;28;20196;-76
2023/09/20 04:11:18;;;;;;;6.93;4.90;;;;;;;;;;5090352;28;20234;-77
2023/09/20 04:13:44;;;;;;;5.07;4.67;;;;;;;;;;5108485;28;20672;-76
2023/09/20 04:16:11;;;;;;;6.30;4.80;;;;;;;;;;5098818;28;20679;-76
2023/09/20 04:18:38;;;;;;;5.10;4.63;;;;;;;;;;5090816;28;20230;-76
2023/09/20 04:21:05;;;;;;;6.17;4.07;;;;;;;;;;5091816;28;20200;-76
2023/09/20 04:23:32;;;;;;;4.87;4.40;;;;;;;;;;5105280;28;20568;-77
2023/09/20 04:25:59;;;;;;;8.63;5.10;;;;;;;;;;5097282;28;20224;-76
2023/09/20 04:28:27;;;;;;;6.70;4.40;;;;;;;;;;5094553;28;20204;-77
2023/09/20 04:30:53;;;;;;;4.60;3.90;;;;;;;;;;5107078;28;20706;-77
2023/09/20 04:33:20;;;;;;;4.13;3.73;;;;;;;;;;5105558;28;20241;-77
2023/09/20 04:35:48;;;;;;;5.47;4.97;;;;;;;;;;5096272;28;20646;-77
2023/09/20 04:38:15;;;;;;;6.17;4.67;;;;;;;;;;5104917;28;20729;-76
2023/09/20 04:40:41;;;;;;;5.87;4.87;;;;;;;;;;5095829;28;20196;-77
2023/09/20 04:43:08;;;;;;;4.57;4.17;;;;;;;;;;5105856;28;20209;-77
2023/09/20 04:45:36;;;;;;;15.03;5.50;;;;;;;;;;5100501;28;20238;-77
2023/09/20 04:48:06;;;;;;;4.70;4.33;;;;;;;;;;5101908;28;20213;-77
2023/09/20 04:50:33;;;;;;;6.27;4.63;;;;;;;;;;5107210;28;20207;-77
2023/09/20 04:53:00;;;;;;;12.60;5.50;;;;;;;;;;5093339;28;20658;-76
2023/09/20 04:55:27;;;;;;;5.20;4.70;;;;;;;;;;5093627;28;20766;-76
2023/09/20 04:57:55;;;;;;;9.30;4.50;;;;;;;;;;5093399;28;20203;-77
2023/09/20 05:00:26;;;;;;;4.93;4.50;;;;;;;;;;5099432;28;20204;-77
2023/09/20 05:02:54;;;;;;;5.70;4.80;;;;;;;;;;5100448;28;20207;-77
2023/09/20 05:05:23;;;;;;;5.23;4.77;;;;;;;;;;5093893;28;20251;-76
2023/09/20 05:07:51;;;;;;;8.73;5.77;;;;;;;;;;5094378;28;20289;-77
2023/09/20 05:10:18;;;;;;;5.30;4.77;;;;;;;;;;5106400;28;20210;-76
2023/09/20 05:12:47;;;;;;;8.23;5.00;;;;;;;;;;5107285;28;20199;-77
2023/09/20 05:15:15;;;;;;;7.03;5.00;;;;;;;;;;5094188;28;20211;-76
2023/09/20 05:17:43;;;;;;;9.13;5.13;;;;;;;;;;5093126;28;20697;-76
2023/09/20 05:20:13;;;;;;;6.63;5.33;;;;;;;;;;5103060;28;20591;-76
2023/09/20 05:22:40;;;;;;;10.63;5.30;;;;;;;;;;5096989;28;20283;-77
2023/09/20 05:25:08;;;;;;;9.70;4.83;;;;;;;;;;5093673;28;20311;-77
2023/09/20 05:27:35;;;;;;;6.20;5.50;;;;;;;;;;5106825;28;20236;-77
2023/09/20 05:30:02;;;;;;;10.93;5.57;;;;;;;;;;5093468;28;20669;-77
2023/09/20 05:32:28;;;;;;;13.27;5.47;;;;;;;;;;5092450;28;20204;-77
2023/09/20 05:34:55;;;;;;;9.33;5.50;;;;;;;;;;5104050;28;20214;-76
2023/09/20 05:37:23;;;;;;;7.13;5.00;;;;;;;;;;5095641;28;20739;-77
2023/09/20 05:39:50;;;;;;;9.13;4.93;;;;;;;;;;5093703;28;20200;-77
2023/09/20 05:42:17;;;;;;;11.07;5.33;;;;;;;;;;5110596;28;20271;-77
2023/09/20 05:44:44;;;;;;;5.10;4.67;;;;;;;;;;5102249;28;20227;-77
2023/09/20 05:47:10;;;;;;;8.63;4.70;;;;;;;;;;5097720;28;20203;-77
2023/09/20 05:49:37;;;;;;;5.87;4.50;;;;;;;;;;5102190;28;20200;-77
2023/09/20 05:52:06;;;;;;;5.03;4.63;;;;;;;;;;5096644;28;20199;-77
2023/09/20 05:54:36;;;;;;;6.23;5.30;;;;;;;;;;5101789;28;20658;-77
2023/09/20 05:57:03;;;;;;;6.20;4.90;;;;;;;;;;5106701;28;20615;-77
2023/09/20 05:59:31;;;;;;;7.27;6.00;;;;;;;;;;5105804;28;20290;-77
2023/09/20 06:01:58;;;;;;;6.73;5.40;;;;;;;;;;5112729;28;20199;-77
2023/09/20 06:04:25;;;;;;;5.97;4.57;;;;;;;;;;5100316;28;20210;-77
2023/09/20 06:06:54;;;;;;;9.40;5.10;;;;;;;;;;5099931;28;20580;-77
2023/09/20 06:09:21;;;;;;;6.17;4.93;;;;;;;;;;5099430;28;20212;-77
2023/09/20 06:11:50;;;;;;;5.60;5.10;;;;;;;;;;5092110;28;20201;-77
2023/09/20 06:14:16;;;;;;;4.53;4.13;;;;;;;;;;5106355;28;20203;-77
2023/09/20 06:16:44;;;;;;;8.63;4.37;;;;;;;;;;5100302;28;20605;-77
2023/09/20 06:19:10;;;;;;;5.53;4.27;;;;;;;;;;5098991;28;20239;-77
2023/09/20 06:21:38;;;;;;;5.43;4.93;;;;;;;;;;5104979;28;20200;-76
2023/09/20 06:24:07;;;;;;;44.30;31.20;;;;;;;;;;5092772;28;20222;-76
2023/09/20 06:26:33;;;;;;;14.37;10.60;;;;;;;;;;5091909;28;20227;-77
2023/09/20 06:29:02;;;;;;;6.47;4.63;;;;;;;;;;5092203;28;20601;-77
2023/09/20 06:31:29;;;;;;;5.93;4.13;;;;;;;;;;5091941;28;20200;-77
2023/09/20 06:33:56;;;;;;;4.87;4.30;;;;;;;;;;5094367;28;20257;-77
2023/09/20 06:36:23;;;;;;;4.93;4.00;;;;;;;;;;5112406;28;20635;-77
2023/09/20 06:38:49;;;;;;;5.37;4.33;;;;;;;;;;5099091;28;20200;-77
2023/09/20 06:41:16;;;;;;;3.97;3.67;;;;;;;;;;5102575;28;20258;-77
2023/09/20 06:43:43;;;;;;;4.53;3.83;;;;;;;;;;5104764;28;20211;-77
2023/09/20 06:46:11;;;;;;;5.13;4.27;;;;;;;;;;5101999;28;20223;-77
2023/09/20 06:48:38;;;;;;;23.63;4.43;;;;;;;;;;5098198;28;20282;-77
2023/09/20 06:51:05;;;;;;;5.27;3.90;;;;;;;;;;5111931;28;20343;-77
2023/09/20 06:53:32;;;;;;;5.63;5.13;;;;;;;;;;5095216;28;20605;-77
2023/09/20 06:55:59;;;;;;;4.23;3.73;;;;;;;;;;5102731;28;20211;-77
2023/09/20 06:58:26;;;;;;;9.03;5.20;;;;;;;;;;5098329;28;20203;-77
2023/09/20 07:00:53;;;;;;;6.73;4.07;;;;;;;;;;5111776;28;20222;-78
2023/09/20 07:03:22;;;;;;;5.07;3.70;;;;;;;;;;5098436;28;20567;-77
2023/09/20 07:05:50;;;;;;;5.50;4.43;;;;;;;;;;5100745;28;20663;-77
2023/09/20 07:08:17;;;;;;;9.67;4.47;;;;;;;;;;5108851;28;20202;-77
2023/09/20 07:10:45;;;;;;;7.47;4.50;;;;;;;;;;5100621;28;20295;-77
2023/09/20 07:13:16;;;;;;;4.33;3.60;;;;;;;;;;5096412;28;20204;-77
2023/09/20 07:15:43;;;;;;;5.53;4.30;;;;;;;;;;5111478;28;20280;-77
2023/09/20 07:18:12;;;;;;;9.30;4.33;;;;;;;;;;5105671;28;20236;-77
2023/09/20 07:20:42;;;;;;;5.20;3.83;;;;;;;;;;5091480;28;20785;-78
2023/09/20 07:23:10;;;;;;;6.50;4.27;;;;;;;;;;5091496;28;20203;-78
2023/09/20 07:25:38;;;;;;;6.73;3.77;;;;;;;;;;5090818;28;20270;-78
2023/09/20 07:28:06;;;;;;;7.13;4.60;;;;;;;;;;5098272;28;20192;-78
2023/09/20 07:30:39;;;;;;;5.70;3.37;;;;;;;;;;5111467;28;20262;-78
2023/09/20 07:33:11;;;;;;;5.27;3.60;;;;;;;;;;5111788;28;20196;-78
2023/09/20 07:35:39;;;;;;;3.70;3.40;;;;;;;;;;5108860;28;20604;-78
2023/09/20 07:38:12;;;;;;;4.47;3.97;;;;;;;;;;5091096;28;20630;-78
2023/09/20 07:40:40;;;;;;;5.33;3.37;;;;;;;;;;5108811;28;20204;-78
2023/09/20 07:43:07;;;;;;;3.80;3.50;;;;;;;;;;5100132;28;20249;-78
2023/09/20 07:45:37;;;;;;;6.37;3.47;;;;;;;;;;5090864;28;20231;-78
2023/09/20 07:48:11;;;;;;;5.97;3.50;;;;;;;;;;5103076;28;20268;-78
2023/09/20 07:50:40;;;;;;;3.53;3.23;;;;;;;;;;5091195;28;20231;-78
2023/09/20 07:53:10;;;;;;;3.73;3.40;;;;;;;;;;5090414;28;20628;-78
2023/09/20 07:55:37;;;;;;;3.63;3.27;;;;;;;;;;5090976;28;20204;-78
2023/09/20 07:58:05;;;;;;;6.57;2.97;;;;;;;;;;5091721;28;20626;-78
2023/09/20 08:00:35;;;;;;;5.97;3.60;;;;;;;;;;5111263;28;20203;-78
2023/09/20 08:03:02;;;;;;;8.40;3.70;;;;;;;;;;5095569;28;20201;-78
2023/09/20 08:05:30;;;;;;;9.10;3.33;;;;;;;;;;5090585;28;20220;-78
2023/09/20 08:07:57;;;;;;;10.80;3.80;;;;;;;;;;5090502;28;20207;-78
2023/09/20 08:10:25;;;;;;;6.63;4.47;;;;;;;;;;5091257;28;20200;-78
2023/09/20 08:12:53;;;;;;;4.43;3.83;;;;;;;;;;5093617;28;20207;-78
2023/09/20 08:15:20;;;;;;;7.63;3.53;;;;;;;;;;5100682;28;20200;-78
2023/09/20 08:20:34;;;;;;;4.67;3.27;;;;;;;;;;5097868;28;20297;-77
2023/09/20 09:01:30;;;;;;;10.57;5.65;;;;;;;;;;5103487;28;20215;-78
2023/09/20 09:03:57;;;;;;;6.25;5.03;;;;;;;;;;5090398;28;20203;-78
2023/09/20 09:06:25;;;;;;;7.78;4.63;;;;;;;;;;5104041;28;20711;-77
2023/09/20 09:08:51;;;;;;;12.02;6.32;;;;;;;;;;5103697;28;20199;-77
2023/09/20 09:11:18;;;;;;;7.82;4.20;;;;;;;;;;5110474;28;20682;-78
2023/09/20 09:13:47;;;;;;;8.07;4.93;;;;;;;;;;5104177;28;20721;-78
2023/09/20 09:16:15;;;;;;;5.75;5.18;;;;;;;;;;5113410;28;20203;-78
2023/09/20 09:18:41;;;;;;;7.97;4.82;;;;;;;;;;5114376;28;20228;-78
2023/09/20 09:21:09;;;;;;;6.30;4.60;;;;;;;;;;5113487;28;20666;-78
2023/09/20 09:23:38;;;;;;;6.72;4.43;;;;;;;;;;5114064;28;20262;-77
2023/09/20 09:26:05;;;;;;;5.43;4.35;;;;;;;;;;5113922;28;20233;-78
2023/09/20 09:28:32;;;;;;;6.45;4.15;;;;;;;;;;5102341;28;20200;-78
2023/09/20 09:31:00;;;;;;;7.88;4.57;;;;;;;;;;5107028;28;20287;-78
2023/09/20 09:33:28;;;;;;;5.35;4.85;;;;;;;;;;5093166;28;20213;-77
2023/09/20 09:35:54;;;;;;;4.07;3.67;;;;;;;;;;5112929;28;20192;-78
2023/09/20 09:38:22;;;;;;;4.78;3.72;;;;;;;;;;5113871;28;20208;-78
2023/09/20 09:40:53;;;;;;;4.45;3.72;;;;;;;;;;5093421;28;20674;-78
2023/09/20 09:43:20;;;;;;;6.63;4.25;;;;;;;;;;5106841;28;20206;-78
2023/09/20 09:45:49;;;;;;;5.25;3.80;;;;;;;;;;5105896;28;20690;-78
2023/09/20 09:48:17;;;;;;;5.63;4.32;;;;;;;;;;5093281;28;20201;-78
2023/09/20 09:50:46;;;;;;;4.80;3.88;;;;;;;;;;5093586;28;20205;-77
2023/09/20 09:53:13;;;;;;;4.13;3.78;;;;;;;;;;5106316;28;20674;-78
2023/09/20 09:55:41;;;;;;;6.93;4.50;;;;;;;;;;5093193;28;20204;-78
2023/09/20 09:58:08;;;;;;;6.63;3.60;;;;;;;;;;5093094;28;20200;-78
2023/09/20 10:00:36;;;;;;;4.40;4.00;;;;;;;;;;5093419;28;20200;-78
2023/09/20 10:03:12;;;;;;;5.85;3.80;;;;;;;;;;5109181;28;20195;-78
2023/09/20 10:05:42;;;;;;;6.80;4.20;;;;;;;;;;5113220;28;20234;-78
2023/09/20 10:08:10;;;;;;;5.65;4.05;;;;;;;;;;5094212;28;20235;-78
2023/09/20 10:10:37;;;;;;;6.13;3.63;;;;;;;;;;5092683;28;20673;-78
2023/09/20 10:13:04;;;;;;;5.35;3.28;;;;;;;;;;5092256;28;20200;-77
2023/09/20 10:15:32;;;;;;;5.80;3.83;;;;;;;;;;5105207;28;20700;-78
2023/09/20 10:18:00;;;;;;;6.93;3.83;;;;;;;;;;5092424;28;20220;-77
2023/09/20 10:20:58;;;;;;;3.15;2.85;;;;;;;;;;5092367;28;20215;-77
2023/09/20 10:23:27;;;;;;;3.45;3.13;;;;;;;;;;5099930;28;20227;-78
2023/09/20 10:25:59;;;;;;;4.15;2.80;;;;;;;;;;5112518;28;20219;-78
2023/09/20 10:28:28;;;;;;;4.93;3.10;;;;;;;;;;5112903;28;20205;-78
2023/09/20 10:31:03;;;;;;;3.20;2.85;;;;;;;;;;5112416;28;20775;-78
2023/09/20 10:33:45;;;;;;;5.05;2.75;;;;;;;;;;5112772;28;20199;-78
2023/09/20 10:36:13;;;;;;;5.20;3.30;;;;;;;;;;5092225;28;20761;-77
2023/09/20 10:38:44;;;;;;;4.63;3.58;;;;;;;;;;5092031;28;20655;-78
2023/09/20 10:41:12;;;;;;;4.35;2.97;;;;;;;;;;5101634;28;20206;-77
2023/09/20 10:43:48;;;;;;;4.90;3.35;;;;;;;;;;5095456;28;20331;-78
2023/09/20 10:46:24;;;;;;;4.05;2.90;;;;;;;;;;5092149;28;20230;-78
2023/09/20 10:48:52;;;;;;;3.03;2.72;;;;;;;;;;5092685;28;20608;-78
2023/09/20 10:51:42;;;;;;;5.22;2.97;;;;;;;;;;5104706;28;20674;-78
2023/09/20 10:54:23;;;;;;;3.83;2.83;;;;;;;;;;5091972;28;20208;-78
2023/09/20 10:57:01;;;;;;;3.33;2.90;;;;;;;;;;5096586;28;20614;-78
2023/09/20 10:59:28;;;;;;;4.15;3.15;;;;;;;;;;5098884;28;20590;-77
2023/09/20 11:01:58;;;;;;;4.28;3.10;;;;;;;;;;5091657;28;20207;-77
2023/09/20 11:04:25;;;;;;;7.85;3.10;;;;;;;;;;5091297;28;20238;-78
2023/09/20 11:06:53;;;;;;;3.13;2.65;;;;;;;;;;5091871;28;20281;-77
2023/09/20 11:09:23;;;;;;;7.10;3.47;;;;;;;;;;5091392;28;20232;-77
2023/09/20 11:11:51;;;;;;;5.50;2.75;;;;;;;;;;5091503;28;20201;-77
2023/09/20 11:14:18;;;;;;;5.22;3.25;;;;;;;;;;5091150;28;20778;-77
2023/09/20 11:16:45;;;;;;;4.70;2.42;;;;;;;;;;5091576;28;20208;-77
2023/09/20 11:19:12;;;;;;;3.20;2.17;;;;;;;;;;5091630;28;20280;-77
2023/09/20 11:21:39;;;;;;;6.03;2.92;;;;;;;;;;5099135;28;20199;-77
2023/09/20 11:24:07;;;;;;;4.50;3.20;;;;;;;;;;5096184;28;20196;-77
2023/09/20 11:26:36;;;;;;;5.90;2.13;;;;;;;;;;5091785;28;20320;-77
2023/09/20 11:29:04;;;;;;;4.03;2.13;;;;;;;;;;5093510;28;20208;-77
2023/09/20 11:31:32;;;;;;;2.50;1.92;;;;;;;;;;5102353;28;20610;-77
2023/09/20 11:34:00;;;;;;;3.60;2.13;;;;;;;;;;5104879;28;20236;-78
2023/09/20 11:36:27;;;;;;;3.58;1.90;;;;;;;;;;5091047;28;20632;-77
2023/09/20 11:38:54;;;;;;;3.72;2.00;;;;;;;;;;5107628;28;20199;-77
2023/09/20 11:41:24;;;;;;;7.95;2.63;;;;;;;;;;5111169;28;20199;-77
2023/09/20 11:43:56;;;;;;;7.20;2.65;;;;;;;;;;5097436;28;20204;-77
2023/09/20 11:46:26;;;;;;;5.13;2.40;;;;;;;;;;5100171;28;20666;-77
2023/09/20 11:48:57;;;;;;;4.63;3.20;;;;;;;;;;5095544;28;20678;-77
2023/09/20 11:51:24;;;;;;;5.95;2.78;;;;;;;;;;5110870;28;20597;-77
2023/09/20 11:53:52;;;;;;;4.88;3.00;;;;;;;;;;5110774;28;20708;-77
2023/09/20 11:56:25;;;;;;;6.63;2.70;;;;;;;;;;5110885;28;20673;-76
2023/09/20 11:58:53;;;;;;;4.28;2.13;;;;;;;;;;5090662;28;20196;-77
2023/09/20 12:01:26;;;;;;;2.30;2.10;;;;;;;;;;5104379;28;20203;-77
2023/09/20 12:03:53;;;;;;;6.03;2.40;;;;;;;;;;5090935;28;20200;-76
2023/09/20 12:06:20;;;;;;;3.15;2.30;;;;;;;;;;5090315;28;20636;-76
2023/09/20 12:08:47;;;;;;;3.22;2.55;;;;;;;;;;5091124;28;20210;-76
2023/09/20 12:11:14;;;;;;;3.40;2.05;;;;;;;;;;5090705;28;20216;-76
2023/09/20 12:13:42;;;;;;;5.13;3.20;;;;;;;;;;5091135;28;20269;-77
2023/09/20 12:16:09;;;;;;;2.63;1.92;;;;;;;;;;5090545;28;20661;-77
2023/09/20 12:18:37;;;;;;;4.82;2.03;;;;;;;;;;5090756;28;20314;-77
2023/09/20 12:21:04;;;;;;;4.03;1.75;;;;;;;;;;5090625;28;20192;-77
2023/09/20 12:23:33;;;;;;;4.68;2.67;;;;;;;;;;5090611;28;20697;-77
2023/09/20 12:26:01;;;;;;;2.50;2.22;;;;;;;;;;5093897;28;20199;-77
2023/09/20 12:28:28;;;;;;;3.40;2.75;;;;;;;;;;5110471;28;20658;-77
2023/09/20 12:30:54;;;;;;;9.27;3.13;;;;;;;;;;5110500;28;20195;-77
2023/09/20 12:33:21;;;;;;;2.55;1.70;;;;;;;;;;5099926;28;20208;-77
2023/09/20 12:35:49;;;;;;;3.65;1.83;;;;;;;;;;5090917;28;20233;-77
2023/09/20 12:38:16;;;;;;;18.20;4.43;;;;;;;;;;5101523;28;20211;-77
2023/09/20 12:40:43;;;;;;;10.15;2.53;;;;;;;;;;5092732;28;20205;-77
2023/09/20 12:43:10;;;;;;;9.48;3.10;;;;;;;;;;5093590;28;20555;-77
2023/09/20 12:45:38;;;;;;;7.32;2.58;;;;;;;;;;5099922;28;20221;-77
2023/09/20 12:48:07;;;;;;;13.45;3.83;;;;;;;;;;5114178;28;20230;-77
2023/09/20 12:50:36;;;;;;;6.10;1.90;;;;;;;;;;5094975;28;20200;-77
2023/09/20 12:53:06;;;;;;;3.28;1.55;;;;;;;;;;5107249;28;20195;-77
2023/09/20 12:55:37;;;;;;;3.53;1.90;;;;;;;;;;5107636;28;20283;-77
2023/09/20 12:58:04;;;;;;;5.05;2.13;;;;;;;;;;5094686;28;20211;-77
2023/09/20 13:00:31;;;;;;;3.47;1.90;;;;;;;;;;5114586;28;20286;-77
2023/09/20 13:02:59;;;;;;;5.18;2.63;;;;;;;;;;5100419;28;20639;-77
2023/09/20 13:05:27;;;;;;;5.53;2.38;;;;;;;;;;5106040;28;20232;-77
2023/09/20 13:07:54;;;;;;;10.77;2.78;;;;;;;;;;5093644;28;20220;-77
2023/09/20 13:10:23;;;;;;;10.60;3.53;;;;;;;;;;5102617;28;20199;-77
2023/09/20 13:12:50;;;;;;;24.88;3.90;;;;;;;;;;5100368;28;20247;-77
2023/09/20 13:15:18;;;;;;;4.68;2.00;;;;;;;;;;5104572;28;20646;-77
2023/09/20 13:17:46;;;;;;;8.38;2.63;;;;;;;;;;5096408;28;20610;-77
2023/09/20 13:20:13;;;;;;;3.95;2.35;;;;;;;;;;5113942;28;20569;-77
2023/09/20 13:22:41;;;;;;;9.68;2.92;;;;;;;;;;5110414;28;20196;-77
2023/09/20 13:25:09;;;;;;;5.15;2.10;;;;;;;;;;5093937;28;20261;-77
2023/09/20 13:27:37;;;;;;;2.80;2.08;;;;;;;;;;5110475;28;20223;-77
2023/09/20 13:30:10;;;;;;;5.75;2.22;;;;;;;;;;5102907;28;20670;-77
2023/09/20 13:32:37;;;;;;;8.05;2.40;;;;;;;;;;5093183;28;20204;-77
2023/09/20 13:35:06;;;;;;;17.48;3.20;;;;;;;;;;5093323;28;20583;-77
2023/09/20 13:37:34;;;;;;;5.53;2.00;;;;;;;;;;5093226;28;20299;-77
2023/09/20 13:40:01;;;;;;;5.10;2.30;;;;;;;;;;5106447;28;20247;-77
2023/09/20 13:42:28;;;;;;;23.33;2.92;;;;;;;;;;5099881;28;20192;-77
2023/09/20 13:44:56;;;;;;;10.43;2.75;;;;;;;;;;5099655;28;20200;-77
2023/09/20 13:47:23;;;;;;;6.25;2.28;;;;;;;;;;5092956;28;20220;-77
2023/09/20 13:49:51;;;;;;;16.25;2.80;;;;;;;;;;5107035;28;20209;-77
2023/09/20 13:52:18;;;;;;;5.78;2.47;;;;;;;;;;5099936;28;20204;-77
2023/09/20 13:54:47;;;;;;;5.80;1.92;;;;;;;;;;5112905;28;20206;-77
2023/09/20 13:57:15;;;;;;;4.85;2.10;;;;;;;;;;5113487;28;20202;-77
2023/09/20 13:59:42;;;;;;;6.07;2.10;;;;;;;;;;5111313;28;20210;-77
2023/09/20 14:02:12;;;;;;;5.63;3.15;;;;;;;;;;5092267;28;20200;-77
2023/09/20 14:04:41;;;;;;;4.45;2.00;;;;;;;;;;5106597;28;20201;-77
2023/09/20 14:07:09;;;;;;;3.88;1.67;;;;;;;;;;5102371;28;20231;-76
2023/09/20 14:09:41;;;;;;;5.75;1.80;;;;;;;;;;5095999;28;20235;-77
2023/09/20 14:12:08;;;;;;;7.35;2.17;;;;;;;;;;5092913;28;20200;-77
2023/09/20 14:14:35;;;;;;;19.20;3.20;;;;;;;;;;5097041;28;20228;-77
2023/09/20 14:17:03;;;;;;;9.70;2.75;;;;;;;;;;5112754;28;20206;-76
2023/09/20 14:19:35;;;;;;;14.20;2.83;;;;;;;;;;5113006;28;20231;-76
2023/09/20 14:22:02;;;;;;;19.42;3.75;;;;;;;;;;5101242;28;20208;-76
2023/09/20 14:24:29;;;;;;;6.57;2.45;;;;;;;;;;5092498;28;20196;-76
2023/09/20 14:26:59;;;;;;;6.30;2.10;;;;;;;;;;5103878;28;20196;-76
2023/09/20 14:29:28;;;;;;;2.97;1.75;;;;;;;;;;5099480;28;20195;-76
2023/09/20 14:31:54;;;;;;;3.72;1.92;;;;;;;;;;5099314;28;20192;-76
2023/09/20 14:34:21;;;;;;;6.45;2.35;;;;;;;;;;5106075;28;20197;-76
2023/09/20 14:36:49;;;;;;;5.78;2.20;;;;;;;;;;5091714;28;20204;-76
2023/09/20 14:39:16;;;;;;;1.73;1.63;;;;;;;;;;5098793;28;20198;-76
2023/09/20 14:41:44;;;;;;;3.55;2.17;;;;;;;;;;5110672;28;20275;-76
2023/09/20 14:44:10;;;;;;;2.95;1.70;;;;;;;;;;5091940;28;20208;-76
2023/09/20 14:46:37;;;;;;;6.35;2.40;;;;;;;;;;5105279;28;20199;-76
2023/09/20 14:49:04;;;;;;;4.38;2.17;;;;;;;;;;5103944;28;20223;-76
2023/09/20 14:51:31;;;;;;;6.75;2.45;;;;;;;;;;5111612;28;20195;-76
2023/09/20 14:54:00;;;;;;;3.85;2.25;;;;;;;;;;5106138;28;20226;-76
2023/09/20 14:56:27;;;;;;;5.50;2.50;;;;;;;;;;5100852;28;20686;-76
2023/09/20 14:58:53;;;;;;;5.88;2.00;;;;;;;;;;5092221;28;20594;-77
2023/09/20 15:01:20;;;;;;;4.97;2.53;;;;;;;;;;5105440;28;20200;-77
2023/09/20 15:03:48;;;;;;;2.97;2.15;;;;;;;;;;5102607;28;20226;-76
2023/09/20 15:06:18;;;;;;;2.63;1.77;;;;;;;;;;5111211;28;20199;-76
2023/09/20 15:08:45;;;;;;;2.75;2.00;;;;;;;;;;5100501;28;20634;-76
2023/09/20 15:11:13;;;;;;;3.65;1.60;;;;;;;;;;5104984;28;20202;-77
2023/09/20 15:13:40;;;;;;;3.03;1.75;;;;;;;;;;5091598;28;20201;-76
2023/09/20 15:16:11;;;;;;;5.70;2.00;;;;;;;;;;5090951;28;20203;-76
2023/09/20 15:18:38;;;;;;;4.55;2.38;;;;;;;;;;5104937;28;20698;-76
2023/09/20 15:21:07;;;;;;;4.60;2.03;;;;;;;;;;5107930;28;20192;-77
2023/09/20 15:23:36;;;;;;;3.65;2.00;;;;;;;;;;5102206;28;20202;-77
2023/09/20 15:26:10;;;;;;;4.22;2.13;;;;;;;;;;5111230;28;20232;-76
2023/09/20 15:28:39;;;;;;;7.10;2.13;;;;;;;;;;5111377;28;20306;-76
2023/09/20 15:31:06;;;;;;;5.03;2.33;;;;;;;;;;5110900;28;20253;-76